createdAt,value
2023-03-27T00:01:16.417Z,93725.00
2023-03-27T00:05:16.323Z,93729.00
2023-03-27T00:09:16.252Z,93737.00
2023-03-27T00:13:16.234Z,93739.00
2023-03-27T00:17:16.177Z,93740.00
2023-03-27T00:21:16.155Z,93739.00
2023-03-27T00:25:16.097Z,93752.00
2023-03-27T00:29:16.068Z,93742.00
2023-03-27T00:33:16.068Z,93740.00
2023-03-27T00:37:16.046Z,93744.00
2023-03-27T00:41:16.023Z,93754.00
2023-03-27T00:45:16.200Z,93752.00
2023-03-27T00:49:16.435Z,93754.00
2023-03-27T00:53:16.324Z,93750.00
2023-03-27T00:57:16.326Z,93760.00
2023-03-27T01:01:16.341Z,93754.00
2023-03-27T01:05:16.219Z,93754.00
2023-03-27T01:09:20.714Z,93758.00
2023-03-27T01:13:16.151Z,93758.00
2023-03-27T01:17:16.146Z,93754.00
2023-03-27T01:21:16.218Z,93774.00
2023-03-27T01:25:16.469Z,93758.00
2023-03-27T01:29:16.410Z,93752.00
2023-03-27T01:33:16.384Z,93754.00
2023-03-27T01:37:16.364Z,93762.00
2023-03-27T01:41:16.363Z,93766.00
2023-03-27T01:45:16.279Z,93760.00
2023-03-27T01:49:16.249Z,93772.00
2023-03-27T01:53:16.237Z,93764.00
2023-03-27T01:57:16.370Z,93770.00
2023-03-27T02:01:16.187Z,93772.00
2023-03-27T02:05:16.177Z,93774.00
2023-03-27T02:09:16.270Z,93772.00
2023-03-27T02:13:16.242Z,93774.00
2023-03-27T02:17:16.231Z,93774.00
2023-03-27T02:21:16.157Z,93770.00
2023-03-27T02:25:16.147Z,93766.00
2023-03-27T02:29:16.094Z,93764.00
2023-03-27T02:33:16.092Z,93760.00
2023-03-27T02:37:16.016Z,93762.00
2023-03-27T02:41:15.988Z,93760.00
2023-03-27T02:45:15.941Z,93760.00
2023-03-27T02:49:15.934Z,93758.00
2023-03-27T02:53:16.047Z,93766.00
2023-03-27T02:57:16.090Z,93764.00
2023-03-27T03:01:16.014Z,93768.00
2023-03-27T03:05:15.947Z,93772.00
2023-03-27T03:09:15.937Z,93772.00
2023-03-27T03:13:15.859Z,93776.00
2023-03-27T03:17:15.864Z,93780.00
2023-03-27T03:21:15.812Z,93776.00
2023-03-27T03:25:15.800Z,93776.00
2023-03-27T03:29:15.728Z,93774.00
2023-03-27T03:33:15.719Z,93778.00
2023-03-27T03:37:15.689Z,93786.00
2023-03-27T03:41:15.635Z,93788.00
2023-03-27T03:45:15.615Z,93795.00
2023-03-27T03:49:15.584Z,93801.00
2023-03-27T03:53:15.545Z,93807.00
2023-03-27T03:57:15.686Z,93815.00
2023-03-27T04:01:15.571Z,93815.00
2023-03-27T04:05:15.420Z,93813.00
2023-03-27T04:09:15.371Z,93825.00
2023-03-27T04:13:15.371Z,93829.00
2023-03-27T04:17:15.373Z,93823.00
2023-03-27T04:21:15.378Z,93825.00
2023-03-27T04:25:15.312Z,93835.00
2023-03-27T04:29:15.258Z,93835.00
2023-03-27T04:33:15.254Z,93829.00
2023-03-27T04:37:15.250Z,93850.00
2023-03-27T04:41:15.180Z,93862.00
2023-03-27T04:45:15.170Z,93870.00
2023-03-27T04:49:15.082Z,93870.00
2023-03-27T04:53:15.077Z,93880.00
2023-03-27T04:57:15.059Z,93893.00
2023-03-27T05:01:15.009Z,93899.00
2023-03-27T05:05:14.962Z,93907.00
2023-03-27T05:09:14.941Z,93909.00
2023-03-27T05:13:14.878Z,93917.00
2023-03-27T05:17:14.869Z,93929.00
2023-03-27T05:21:14.814Z,93915.00
2023-03-27T05:25:14.796Z,93929.00
2023-03-27T05:29:14.747Z,93935.00
2023-03-27T05:33:14.741Z,93950.00
2023-03-27T05:37:14.720Z,93944.00
2023-03-27T05:41:15.018Z,93976.00
2023-03-27T05:45:14.655Z,93978.00
2023-03-27T05:49:14.953Z,93985.00
2023-03-27T05:53:15.112Z,93993.00
2023-03-27T05:57:15.022Z,94015.00
2023-03-27T06:01:14.550Z,93999.00
2023-03-27T06:05:14.528Z,93997.00
2023-03-27T06:09:14.937Z,94031.00
2023-03-27T06:13:14.451Z,94036.00
2023-03-27T06:17:14.381Z,94058.00
2023-03-27T06:21:14.384Z,94054.00
2023-03-27T06:25:14.423Z,94084.00
2023-03-27T06:29:14.645Z,94093.00
2023-03-27T06:33:14.737Z,94101.00
2023-03-27T06:37:14.961Z,94107.00
2023-03-27T06:41:14.866Z,94129.00
2023-03-27T06:45:15.493Z,94127.00
2023-03-27T06:49:14.981Z,94140.00
2023-03-27T06:53:25.921Z,94158.00
2023-03-27T06:57:16.480Z,94166.00
2023-03-27T07:01:15.266Z,94178.00
2023-03-27T07:05:15.267Z,94191.00
2023-03-27T07:09:15.485Z,94203.00
2023-03-27T07:13:15.473Z,94205.00
2023-03-27T07:17:15.233Z,94219.00
2023-03-27T07:21:15.235Z,94248.00
2023-03-27T07:25:15.273Z,94256.00
2023-03-27T07:29:15.529Z,94262.00
2023-03-27T07:33:15.387Z,94283.00
2023-03-27T07:37:15.288Z,94305.00
2023-03-27T07:41:15.501Z,94309.00
2023-03-27T07:45:15.526Z,94336.00
2023-03-27T07:49:15.477Z,94344.00
2023-03-27T07:53:33.713Z,94348.00
2023-03-27T07:57:16.625Z,94350.00
2023-03-27T08:01:15.095Z,94379.00
2023-03-27T08:05:15.084Z,94377.00
2023-03-27T08:09:15.036Z,94409.00
2023-03-27T08:13:15.004Z,94407.00
2023-03-27T08:17:16.615Z,94428.00
2023-03-27T08:21:15.037Z,94421.00
2023-03-27T08:25:15.517Z,94456.00
2023-03-27T08:29:15.492Z,94454.00
2023-03-27T08:33:15.453Z,94456.00
2023-03-27T08:37:15.554Z,94477.00
2023-03-27T08:41:15.521Z,94479.00
2023-03-27T08:45:15.518Z,94489.00
2023-03-27T08:49:15.327Z,94477.00
2023-03-27T08:53:15.497Z,94479.00
2023-03-27T08:57:15.681Z,94507.00
2023-03-27T09:01:15.270Z,94507.00
2023-03-27T09:05:15.159Z,94509.00
2023-03-27T09:09:15.555Z,94503.00
2023-03-27T09:13:15.107Z,94521.00
2023-03-27T09:17:15.087Z,94524.00
2023-03-27T09:21:15.045Z,94534.00
2023-03-27T09:25:14.975Z,94534.00
2023-03-27T09:29:20.384Z,94542.00
2023-03-27T09:33:15.943Z,94552.00
2023-03-27T09:37:15.056Z,94566.00
2023-03-27T09:41:15.083Z,94562.00
2023-03-27T09:45:15.564Z,94558.00
2023-03-27T09:49:16.062Z,94556.00
2023-03-27T09:53:15.365Z,94566.00
2023-03-27T09:57:15.584Z,94566.00
2023-03-27T10:01:15.696Z,94564.00
2023-03-27T10:05:16.064Z,94572.00
2023-03-27T10:09:15.713Z,94579.00
2023-03-27T10:13:15.655Z,94583.00
2023-03-27T10:17:16.055Z,94572.00
2023-03-27T10:21:15.582Z,94587.00
2023-03-27T10:25:15.597Z,94605.00
2023-03-27T10:29:15.506Z,94599.00
2023-03-27T10:33:15.559Z,94615.00
2023-03-27T10:37:15.591Z,94607.00
2023-03-27T10:41:15.607Z,94603.00
2023-03-27T10:45:16.381Z,94609.00
2023-03-27T10:49:17.463Z,94607.00
2023-03-27T10:53:15.660Z,94615.00
2023-03-27T10:57:15.455Z,94619.00
2023-03-27T11:01:15.456Z,94621.00
2023-03-27T11:05:15.361Z,94630.00
2023-03-27T11:09:15.635Z,94650.00
2023-03-27T11:13:15.270Z,94650.00
2023-03-27T11:17:15.575Z,94656.00
2023-03-27T11:21:15.164Z,94668.00
2023-03-27T11:25:15.627Z,94664.00
2023-03-27T11:29:15.564Z,94666.00
2023-03-27T11:33:15.596Z,94672.00
2023-03-27T11:37:15.032Z,94679.00
2023-03-27T11:41:15.551Z,94695.00
2023-03-27T11:45:14.951Z,94697.00
2023-03-27T11:49:14.973Z,94691.00
2023-03-27T11:53:14.902Z,94695.00
2023-03-27T11:57:15.112Z,94713.00
2023-03-27T12:01:16.616Z,94715.00
2023-03-27T12:05:14.839Z,94703.00
2023-03-27T12:09:14.756Z,94724.00
2023-03-27T12:13:14.736Z,94721.00
2023-03-27T12:17:15.109Z,94723.00
2023-03-27T12:21:15.108Z,94750.00
2023-03-27T12:25:14.620Z,94748.00
2023-03-27T12:29:23.374Z,94750.00
2023-03-27T12:33:15.642Z,94758.00
2023-03-27T12:37:14.594Z,94744.00
2023-03-27T12:41:14.685Z,94744.00
2023-03-27T12:45:14.695Z,94756.00
2023-03-27T12:49:14.640Z,94766.00
2023-03-27T12:53:14.577Z,94771.00
2023-03-27T12:57:14.702Z,94779.00
2023-03-27T13:01:14.497Z,94789.00
2023-03-27T13:05:26.204Z,94787.00
2023-03-27T13:09:15.459Z,94789.00
2023-03-27T13:13:14.429Z,94777.00
2023-03-27T13:17:14.384Z,94799.00
2023-03-27T13:21:14.440Z,94801.00
2023-03-27T13:25:14.492Z,94799.00
2023-03-27T13:29:14.601Z,94823.00
2023-03-27T13:33:14.779Z,94811.00
2023-03-27T13:37:14.924Z,94817.00
2023-03-27T13:41:15.062Z,94805.00
2023-03-27T13:45:15.141Z,94819.00
2023-03-27T13:49:15.312Z,94836.00
2023-03-27T13:53:15.350Z,94834.00
2023-03-27T13:57:15.332Z,94848.00
2023-03-27T14:01:15.237Z,94846.00
2023-03-27T14:05:15.225Z,94850.00
2023-03-27T14:09:15.196Z,94852.00
2023-03-27T14:13:15.675Z,94854.00
2023-03-27T14:17:15.107Z,94875.00
2023-03-27T14:21:19.702Z,94889.00
2023-03-27T14:25:16.066Z,94899.00
2023-03-27T14:29:15.010Z,94909.00
2023-03-27T14:33:15.058Z,94911.00
2023-03-27T14:37:15.125Z,94909.00
2023-03-27T14:41:15.112Z,94911.00
2023-03-27T14:45:15.036Z,94930.00
2023-03-27T14:49:15.004Z,94938.00
2023-03-27T14:53:14.979Z,94942.00
2023-03-27T14:57:14.944Z,94948.00
2023-03-27T15:01:14.947Z,94954.00
2023-03-27T15:05:14.904Z,94966.00
2023-03-27T15:09:14.843Z,94973.00
2023-03-27T15:13:14.801Z,94983.00
2023-03-27T15:17:14.777Z,94997.00
2023-03-27T15:21:14.709Z,95003.00
2023-03-27T15:25:14.695Z,95019.00
2023-03-27T15:29:14.724Z,95028.00
2023-03-27T15:33:14.891Z,95032.00
2023-03-27T15:37:15.060Z,95024.00
2023-03-27T15:41:15.261Z,95030.00
2023-03-27T15:45:15.372Z,95038.00
2023-03-27T15:49:15.469Z,95032.00
2023-03-27T15:53:15.703Z,95034.00
2023-03-27T15:57:15.900Z,95040.00
2023-03-27T16:01:18.963Z,95058.00
2023-03-27T16:05:15.999Z,95058.00
2023-03-27T16:09:16.197Z,95062.00
2023-03-27T16:13:15.911Z,95071.00
2023-03-27T16:17:15.867Z,95073.00
2023-03-27T16:21:15.874Z,95097.00
2023-03-27T16:25:15.828Z,95107.00
2023-03-27T16:29:15.777Z,95101.00
2023-03-27T16:33:16.455Z,95113.00
2023-03-27T16:37:15.945Z,95115.00
2023-03-27T16:41:16.140Z,95124.00
2023-03-27T16:45:16.330Z,95148.00
2023-03-27T16:49:16.528Z,95158.00
2023-03-27T16:53:16.659Z,95158.00
2023-03-27T16:57:16.924Z,95160.00
2023-03-27T17:01:16.898Z,95175.00
2023-03-27T17:05:16.814Z,95179.00
2023-03-27T17:09:16.761Z,95181.00
2023-03-27T17:13:16.709Z,95181.00
2023-03-27T17:17:16.692Z,95187.00
2023-03-27T17:21:16.641Z,95203.00
2023-03-27T17:25:16.599Z,95203.00
2023-03-27T17:29:16.579Z,95197.00
2023-03-27T17:33:16.550Z,95201.00
2023-03-27T17:37:16.477Z,95211.00
2023-03-27T17:41:16.437Z,95213.00
2023-03-27T17:45:16.391Z,95207.00
2023-03-27T17:49:16.377Z,95207.00
2023-03-27T17:53:16.374Z,95213.00
2023-03-27T17:57:16.705Z,95216.00
2023-03-27T18:01:16.778Z,95213.00
2023-03-27T18:05:16.940Z,95209.00
2023-03-27T18:09:17.165Z,95226.00
2023-03-27T18:13:17.134Z,95224.00
2023-03-27T18:17:17.095Z,95226.00
2023-03-27T18:21:17.088Z,95224.00
2023-03-27T18:25:16.992Z,95230.00
2023-03-27T18:29:16.974Z,95230.00
2023-03-27T18:33:16.947Z,95238.00
2023-03-27T18:37:16.894Z,95250.00
2023-03-27T18:41:16.874Z,95252.00
2023-03-27T18:45:16.850Z,95264.00
2023-03-27T18:49:24.285Z,95268.00
2023-03-27T18:53:17.772Z,95266.00
2023-03-27T18:57:19.198Z,95268.00
2023-03-27T19:01:16.768Z,95269.00
2023-03-27T19:05:16.665Z,95266.00
2023-03-27T19:09:16.624Z,95273.00
2023-03-27T19:13:16.681Z,95277.00
2023-03-27T19:17:16.582Z,95287.00
2023-03-27T19:21:16.499Z,95281.00
2023-03-27T19:25:16.476Z,95289.00
2023-03-27T19:29:16.433Z,95297.00
2023-03-27T19:33:16.376Z,95303.00
2023-03-27T19:37:16.363Z,95309.00
2023-03-27T19:41:16.350Z,95305.00
2023-03-27T19:45:16.300Z,95311.00
2023-03-27T19:49:16.364Z,95315.00
2023-03-27T19:53:16.269Z,95297.00
2023-03-27T19:57:16.253Z,95305.00
2023-03-27T20:01:16.178Z,95303.00
2023-03-27T20:05:16.096Z,95309.00
2023-03-27T20:09:16.065Z,95303.00
2023-03-27T20:13:16.045Z,95299.00
2023-03-27T20:17:25.325Z,95299.00
2023-03-27T20:21:17.004Z,95309.00
2023-03-27T20:25:15.933Z,95315.00
2023-03-27T20:29:15.924Z,95311.00
2023-03-27T20:33:15.851Z,95334.00
2023-03-27T20:37:15.829Z,95338.00
2023-03-27T20:41:15.954Z,95348.00
2023-03-27T20:45:16.075Z,95350.00
2023-03-27T20:49:16.239Z,95346.00
2023-03-27T20:53:16.372Z,95352.00
2023-03-27T20:57:16.584Z,95358.00
2023-03-27T21:01:16.792Z,95358.00
2023-03-27T21:05:16.916Z,95350.00
2023-03-27T21:09:17.077Z,95358.00
2023-03-27T21:13:17.423Z,95354.00
2023-03-27T21:17:17.415Z,95358.00
2023-03-27T21:21:17.589Z,95367.00
2023-03-27T21:25:17.711Z,95362.00
2023-03-27T21:29:17.855Z,95362.00
2023-03-27T21:33:17.945Z,95358.00
2023-03-27T21:37:18.069Z,95354.00
2023-03-27T21:41:18.150Z,95354.00
2023-03-27T21:45:18.268Z,95356.00
2023-03-27T21:49:18.411Z,95369.00
2023-03-27T21:53:18.535Z,95367.00
2023-03-27T21:57:18.705Z,95367.00
2023-03-27T22:01:18.903Z,95373.00
2023-03-27T22:05:18.978Z,95379.00
2023-03-27T22:09:19.129Z,95393.00
2023-03-27T22:13:19.325Z,95403.00
2023-03-27T22:17:19.496Z,95411.00
2023-03-27T22:21:19.664Z,95411.00
2023-03-27T22:25:19.871Z,95403.00
2023-03-27T22:29:20.003Z,95407.00
2023-03-27T22:33:20.188Z,95420.00
2023-03-27T22:37:20.329Z,95409.00
2023-03-27T22:41:20.501Z,95428.00
2023-03-27T22:45:20.714Z,95432.00
2023-03-27T22:49:20.968Z,95446.00
2023-03-27T22:53:20.957Z,95438.00
2023-03-27T22:57:20.923Z,95452.00
2023-03-27T23:01:20.825Z,95448.00
2023-03-27T23:05:20.798Z,95460.00
2023-03-27T23:09:20.755Z,95458.00
2023-03-27T23:13:20.712Z,95464.00
2023-03-27T23:17:20.706Z,95468.00
2023-03-27T23:21:20.667Z,95462.00
2023-03-27T23:25:20.625Z,95464.00
2023-03-27T23:29:20.585Z,95471.00
2023-03-27T23:33:20.552Z,95466.00
2023-03-27T23:37:20.511Z,95462.00
2023-03-27T23:41:20.468Z,95464.00
2023-03-27T23:45:20.483Z,95468.00
2023-03-27T23:49:20.388Z,95470.00
2023-03-27T23:53:20.454Z,95481.00
2023-03-27T23:57:20.550Z,95481.00
